sensor_id;sensor_type;location;lat;lon;timestamp;P1;durP1;ratioP1;P2;durP2;ratioP2
73940;SDS011;62294;48.554;10.202;2023-07-13T00:01:52;8.10;;;5.03;;
73940;SDS011;62294;48.554;10.202;2023-07-13T00:04:36;10.90;;;4.72;;
73940;SDS011;62294;48.554;10.202;2023-07-13T00:07:03;8.73;;;5.13;;
73940;SDS011;62294;48.554;10.202;2023-07-13T00:09:30;10.32;;;4.97;;
73940;SDS011;62294;48.554;10.202;2023-07-13T00:11:56;9.70;;;4.75;;
73940;SDS011;62294;48.554;10.202;2023-07-13T00:14:25;10.80;;;5.25;;
73940;SDS011;62294;48.554;10.202;2023-07-13T00:16:52;10.07;;;5.28;;
73940;SDS011;62294;48.554;10.202;2023-07-13T00:19:19;12.98;;;5.55;;
73940;SDS011;62294;48.554;10.202;2023-07-13T00:21:46;12.55;;;5.40;;
73940;SDS011;62294;48.554;10.202;2023-07-13T00:24:14;13.77;;;5.78;;
73940;SDS011;62294;48.554;10.202;2023-07-13T00:26:43;12.05;;;5.28;;
73940;SDS011;62294;48.554;10.202;2023-07-13T00:29:12;16.63;;;6.28;;
73940;SDS011;62294;48.554;10.202;2023-07-13T00:31:39;11.30;;;5.97;;
73940;SDS011;62294;48.554;10.202;2023-07-13T00:34:06;11.75;;;6.30;;
73940;SDS011;62294;48.554;10.202;2023-07-13T00:36:33;14.63;;;6.38;;
73940;SDS011;62294;48.554;10.202;2023-07-13T00:39:00;17.08;;;6.43;;
73940;SDS011;62294;48.554;10.202;2023-07-13T00:41:26;13.02;;;5.93;;
73940;SDS011;62294;48.554;10.202;2023-07-13T00:43:53;10.20;;;5.80;;
73940;SDS011;62294;48.554;10.202;2023-07-13T00:46:21;11.55;;;5.93;;
73940;SDS011;62294;48.554;10.202;2023-07-13T00:48:51;12.63;;;5.43;;
73940;SDS011;62294;48.554;10.202;2023-07-13T00:51:27;6.70;;;4.25;;
73940;SDS011;62294;48.554;10.202;2023-07-13T00:54:00;10.02;;;4.45;;
73940;SDS011;62294;48.554;10.202;2023-07-13T00:56:31;11.30;;;4.25;;
73940;SDS011;62294;48.554;10.202;2023-07-13T00:59:00;8.38;;;3.80;;
73940;SDS011;62294;48.554;10.202;2023-07-13T01:01:28;7.40;;;4.13;;
73940;SDS011;62294;48.554;10.202;2023-07-13T01:03:55;13.80;;;3.95;;
73940;SDS011;62294;48.554;10.202;2023-07-13T01:06:23;10.30;;;3.67;;
73940;SDS011;62294;48.554;10.202;2023-07-13T01:08:50;16.02;;;4.55;;
73940;SDS011;62294;48.554;10.202;2023-07-13T01:11:20;8.45;;;3.22;;
73940;SDS011;62294;48.554;10.202;2023-07-13T01:13:48;9.43;;;3.45;;
73940;SDS011;62294;48.554;10.202;2023-07-13T01:16:19;11.30;;;3.28;;
73940;SDS011;62294;48.554;10.202;2023-07-13T01:18:50;7.70;;;3.95;;
73940;SDS011;62294;48.554;10.202;2023-07-13T01:21:17;11.60;;;3.22;;
73940;SDS011;62294;48.554;10.202;2023-07-13T01:23:45;10.07;;;3.50;;
73940;SDS011;62294;48.554;10.202;2023-07-13T01:26:11;11.63;;;3.63;;
73940;SDS011;62294;48.554;10.202;2023-07-13T01:28:38;9.60;;;3.30;;
73940;SDS011;62294;48.554;10.202;2023-07-13T01:31:05;9.70;;;3.38;;
73940;SDS011;62294;48.554;10.202;2023-07-13T01:33:32;6.90;;;3.13;;
73940;SDS011;62294;48.554;10.202;2023-07-13T01:36:00;8.20;;;4.55;;
73940;SDS011;62294;48.554;10.202;2023-07-13T01:38:28;8.85;;;3.42;;
73940;SDS011;62294;48.554;10.202;2023-07-13T01:40:55;10.40;;;3.78;;
73940;SDS011;62294;48.554;10.202;2023-07-13T01:43:21;6.05;;;3.40;;
73940;SDS011;62294;48.554;10.202;2023-07-13T01:45:48;7.93;;;3.72;;
73940;SDS011;62294;48.554;10.202;2023-07-13T01:48:15;5.07;;;3.38;;
73940;SDS011;62294;48.554;10.202;2023-07-13T01:50:42;11.05;;;3.90;;
73940;SDS011;62294;48.554;10.202;2023-07-13T01:53:08;9.35;;;3.38;;
73940;SDS011;62294;48.554;10.202;2023-07-13T01:55:35;7.15;;;3.35;;
73940;SDS011;62294;48.554;10.202;2023-07-13T01:58:02;7.07;;;3.10;;
73940;SDS011;62294;48.554;10.202;2023-07-13T02:00:30;9.10;;;3.22;;
73940;SDS011;62294;48.554;10.202;2023-07-13T02:02:57;3.75;;;3.08;;
73940;SDS011;62294;48.554;10.202;2023-07-13T02:05:24;6.55;;;3.40;;
73940;SDS011;62294;48.554;10.202;2023-07-13T02:07:50;8.13;;;4.10;;
73940;SDS011;62294;48.554;10.202;2023-07-13T02:10:19;5.00;;;3.10;;
73940;SDS011;62294;48.554;10.202;2023-07-13T02:12:45;9.40;;;3.67;;
73940;SDS011;62294;48.554;10.202;2023-07-13T02:15:12;5.97;;;3.33;;
73940;SDS011;62294;48.554;10.202;2023-07-13T02:17:38;7.63;;;3.28;;
73940;SDS011;62294;48.554;10.202;2023-07-13T02:20:05;6.20;;;3.05;;
73940;SDS011;62294;48.554;10.202;2023-07-13T02:22:32;13.43;;;3.65;;
73940;SDS011;62294;48.554;10.202;2023-07-13T02:24:59;8.13;;;3.58;;
73940;SDS011;62294;48.554;10.202;2023-07-13T02:27:26;8.55;;;3.90;;
73940;SDS011;62294;48.554;10.202;2023-07-13T02:29:53;9.95;;;3.13;;
73940;SDS011;62294;48.554;10.202;2023-07-13T02:32:19;17.50;;;3.25;;
73940;SDS011;62294;48.554;10.202;2023-07-13T02:34:46;9.82;;;3.22;;
73940;SDS011;62294;48.554;10.202;2023-07-13T02:37:13;10.43;;;2.85;;
73940;SDS011;62294;48.554;10.202;2023-07-13T02:39:39;8.25;;;3.03;;
73940;SDS011;62294;48.554;10.202;2023-07-13T02:42:06;7.22;;;2.28;;
73940;SDS011;62294;48.554;10.202;2023-07-13T02:44:32;6.10;;;2.30;;
73940;SDS011;62294;48.554;10.202;2023-07-13T02:46:59;8.00;;;2.30;;
73940;SDS011;62294;48.554;10.202;2023-07-13T02:49:26;8.98;;;2.63;;
73940;SDS011;62294;48.554;10.202;2023-07-13T02:51:52;4.90;;;2.60;;
73940;SDS011;62294;48.554;10.202;2023-07-13T02:54:19;6.53;;;2.55;;
73940;SDS011;62294;48.554;10.202;2023-07-13T02:56:45;7.07;;;2.15;;
73940;SDS011;62294;48.554;10.202;2023-07-13T02:59:12;5.30;;;2.13;;
73940;SDS011;62294;48.554;10.202;2023-07-13T03:01:39;6.30;;;2.03;;
73940;SDS011;62294;48.554;10.202;2023-07-13T03:04:06;6.18;;;2.25;;
73940;SDS011;62294;48.554;10.202;2023-07-13T03:06:33;4.43;;;2.00;;
73940;SDS011;62294;48.554;10.202;2023-07-13T03:09:00;8.38;;;2.03;;
73940;SDS011;62294;48.554;10.202;2023-07-13T03:11:27;4.80;;;2.38;;
73940;SDS011;62294;48.554;10.202;2023-07-13T03:13:53;4.90;;;2.17;;
73940;SDS011;62294;48.554;10.202;2023-07-13T03:16:21;4.13;;;2.30;;
73940;SDS011;62294;48.554;10.202;2023-07-13T03:18:48;6.28;;;2.17;;
73940;SDS011;62294;48.554;10.202;2023-07-13T03:21:14;8.68;;;2.70;;
73940;SDS011;62294;48.554;10.202;2023-07-13T03:23:42;3.72;;;2.22;;
73940;SDS011;62294;48.554;10.202;2023-07-13T03:26:13;3.63;;;2.45;;
73940;SDS011;62294;48.554;10.202;2023-07-13T03:28:42;5.95;;;2.30;;
73940;SDS011;62294;48.554;10.202;2023-07-13T03:31:10;6.95;;;2.40;;
73940;SDS011;62294;48.554;10.202;2023-07-13T03:33:39;8.32;;;2.30;;
73940;SDS011;62294;48.554;10.202;2023-07-13T03:36:06;4.85;;;2.53;;
73940;SDS011;62294;48.554;10.202;2023-07-13T03:38:37;10.00;;;2.53;;
73940;SDS011;62294;48.554;10.202;2023-07-13T03:41:03;9.43;;;2.67;;
73940;SDS011;62294;48.554;10.202;2023-07-13T03:43:29;12.00;;;3.83;;
73940;SDS011;62294;48.554;10.202;2023-07-13T03:45:56;7.95;;;3.22;;
73940;SDS011;62294;48.554;10.202;2023-07-13T03:48:23;10.20;;;2.45;;
73940;SDS011;62294;48.554;10.202;2023-07-13T03:50:49;7.82;;;2.50;;
73940;SDS011;62294;48.554;10.202;2023-07-13T03:53:16;5.75;;;2.53;;
73940;SDS011;62294;48.554;10.202;2023-07-13T03:55:43;7.55;;;2.22;;
73940;SDS011;62294;48.554;10.202;2023-07-13T03:58:24;6.25;;;2.10;;
73940;SDS011;62294;48.554;10.202;2023-07-13T04:00:51;8.23;;;2.30;;
73940;SDS011;62294;48.554;10.202;2023-07-13T04:03:18;4.85;;;2.35;;
73940;SDS011;62294;48.554;10.202;2023-07-13T04:05:44;10.23;;;2.30;;
73940;SDS011;62294;48.554;10.202;2023-07-13T04:08:11;8.52;;;2.58;;
73940;SDS011;62294;48.554;10.202;2023-07-13T04:10:38;5.88;;;2.70;;
73940;SDS011;62294;48.554;10.202;2023-07-13T04:13:05;8.30;;;2.30;;
73940;SDS011;62294;48.554;10.202;2023-07-13T04:15:32;6.18;;;2.45;;
73940;SDS011;62294;48.554;10.202;2023-07-13T04:17:59;4.55;;;2.45;;
73940;SDS011;62294;48.554;10.202;2023-07-13T04:20:26;11.32;;;2.60;;
73940;SDS011;62294;48.554;10.202;2023-07-13T04:22:52;8.70;;;2.80;;
73940;SDS011;62294;48.554;10.202;2023-07-13T04:25:21;7.55;;;2.70;;
73940;SDS011;62294;48.554;10.202;2023-07-13T04:27:49;7.30;;;2.80;;
73940;SDS011;62294;48.554;10.202;2023-07-13T04:30:16;6.82;;;2.70;;
73940;SDS011;62294;48.554;10.202;2023-07-13T04:32:42;5.55;;;2.88;;
73940;SDS011;62294;48.554;10.202;2023-07-13T04:35:09;6.05;;;2.58;;
73940;SDS011;62294;48.554;10.202;2023-07-13T04:37:35;6.97;;;2.80;;
73940;SDS011;62294;48.554;10.202;2023-07-13T04:40:02;3.47;;;2.08;;
73940;SDS011;62294;48.554;10.202;2023-07-13T04:42:30;10.05;;;2.80;;
73940;SDS011;62294;48.554;10.202;2023-07-13T04:44:57;4.75;;;2.45;;
73940;SDS011;62294;48.554;10.202;2023-07-13T04:47:23;7.22;;;2.80;;
73940;SDS011;62294;48.554;10.202;2023-07-13T04:49:50;5.45;;;3.00;;
73940;SDS011;62294;48.554;10.202;2023-07-13T04:52:17;12.48;;;3.30;;
73940;SDS011;62294;48.554;10.202;2023-07-13T04:54:43;11.48;;;2.70;;
73940;SDS011;62294;48.554;10.202;2023-07-13T04:57:10;4.13;;;2.55;;
73940;SDS011;62294;48.554;10.202;2023-07-13T04:59:36;9.57;;;2.92;;
73940;SDS011;62294;48.554;10.202;2023-07-13T05:02:03;6.43;;;2.70;;
73940;SDS011;62294;48.554;10.202;2023-07-13T05:04:30;4.20;;;2.80;;
73940;SDS011;62294;48.554;10.202;2023-07-13T05:06:56;3.50;;;2.22;;
73940;SDS011;62294;48.554;10.202;2023-07-13T05:09:22;5.13;;;2.05;;
73940;SDS011;62294;48.554;10.202;2023-07-13T05:11:49;4.28;;;2.00;;
73940;SDS011;62294;48.554;10.202;2023-07-13T05:14:16;6.00;;;2.10;;
73940;SDS011;62294;48.554;10.202;2023-07-13T05:16:42;4.93;;;2.05;;
73940;SDS011;62294;48.554;10.202;2023-07-13T05:19:09;4.57;;;2.20;;
73940;SDS011;62294;48.554;10.202;2023-07-13T05:21:36;6.63;;;2.53;;
73940;SDS011;62294;48.554;10.202;2023-07-13T05:24:02;9.20;;;2.22;;
73940;SDS011;62294;48.554;10.202;2023-07-13T05:26:49;6.72;;;2.45;;
73940;SDS011;62294;48.554;10.202;2023-07-13T05:29:16;5.15;;;2.17;;
73940;SDS011;62294;48.554;10.202;2023-07-13T05:31:42;4.60;;;2.20;;
73940;SDS011;62294;48.554;10.202;2023-07-13T05:34:09;3.95;;;1.80;;
73940;SDS011;62294;48.554;10.202;2023-07-13T05:36:35;7.20;;;2.20;;
73940;SDS011;62294;48.554;10.202;2023-07-13T05:39:03;2.55;;;1.80;;
73940;SDS011;62294;48.554;10.202;2023-07-13T05:41:30;2.63;;;1.80;;
73940;SDS011;62294;48.554;10.202;2023-07-13T05:43:56;6.43;;;2.60;;
73940;SDS011;62294;48.554;10.202;2023-07-13T05:46:24;5.28;;;2.17;;
73940;SDS011;62294;48.554;10.202;2023-07-13T05:48:51;9.75;;;2.30;;
73940;SDS011;62294;48.554;10.202;2023-07-13T05:51:17;4.72;;;2.30;;
73940;SDS011;62294;48.554;10.202;2023-07-13T05:53:44;7.63;;;2.17;;
73940;SDS011;62294;48.554;10.202;2023-07-13T05:56:10;4.85;;;2.40;;
73940;SDS011;62294;48.554;10.202;2023-07-13T05:58:37;5.43;;;2.30;;
73940;SDS011;62294;48.554;10.202;2023-07-13T06:01:05;7.82;;;2.67;;
73940;SDS011;62294;48.554;10.202;2023-07-13T06:03:35;7.35;;;2.42;;
73940;SDS011;62294;48.554;10.202;2023-07-13T06:06:04;6.53;;;2.28;;
73940;SDS011;62294;48.554;10.202;2023-07-13T06:08:32;4.22;;;2.00;;
73940;SDS011;62294;48.554;10.202;2023-07-13T06:11:03;4.57;;;2.17;;
73940;SDS011;62294;48.554;10.202;2023-07-13T06:13:32;4.63;;;1.80;;
73940;SDS011;62294;48.554;10.202;2023-07-13T06:16:00;4.15;;;1.90;;
73940;SDS011;62294;48.554;10.202;2023-07-13T06:18:26;3.65;;;2.00;;
73940;SDS011;62294;48.554;10.202;2023-07-13T06:20:53;4.20;;;2.00;;
73940;SDS011;62294;48.554;10.202;2023-07-13T06:23:20;7.55;;;2.50;;
73940;SDS011;62294;48.554;10.202;2023-07-13T06:25:46;6.85;;;2.03;;
73940;SDS011;62294;48.554;10.202;2023-07-13T06:28:12;5.85;;;2.92;;
73940;SDS011;62294;48.554;10.202;2023-07-13T06:30:39;6.75;;;2.20;;
73940;SDS011;62294;48.554;10.202;2023-07-13T06:33:06;4.03;;;1.90;;
73940;SDS011;62294;48.554;10.202;2023-07-13T06:35:33;9.57;;;2.50;;
73940;SDS011;62294;48.554;10.202;2023-07-13T06:37:59;4.72;;;2.13;;
73940;SDS011;62294;48.554;10.202;2023-07-13T06:40:26;6.55;;;1.98;;
73940;SDS011;62294;48.554;10.202;2023-07-13T06:42:55;5.22;;;2.30;;
73940;SDS011;62294;48.554;10.202;2023-07-13T06:45:22;8.45;;;2.20;;
73940;SDS011;62294;48.554;10.202;2023-07-13T06:47:49;5.93;;;2.20;;
73940;SDS011;62294;48.554;10.202;2023-07-13T06:50:16;3.35;;;1.98;;
73940;SDS011;62294;48.554;10.202;2023-07-13T06:52:42;3.15;;;2.10;;
73940;SDS011;62294;48.554;10.202;2023-07-13T06:55:09;5.13;;;2.25;;
73940;SDS011;62294;48.554;10.202;2023-07-13T06:57:35;6.95;;;2.40;;
73940;SDS011;62294;48.554;10.202;2023-07-13T07:00:02;4.55;;;2.47;;
73940;SDS011;62294;48.554;10.202;2023-07-13T07:02:28;2.47;;;1.80;;
73940;SDS011;62294;48.554;10.202;2023-07-13T07:04:55;3.75;;;2.00;;
73940;SDS011;62294;48.554;10.202;2023-07-13T07:07:23;5.35;;;1.92;;
73940;SDS011;62294;48.554;10.202;2023-07-13T07:09:51;4.32;;;1.80;;
73940;SDS011;62294;48.554;10.202;2023-07-13T07:12:18;3.63;;;1.50;;
73940;SDS011;62294;48.554;10.202;2023-07-13T07:14:44;4.70;;;1.75;;
73940;SDS011;62294;48.554;10.202;2023-07-13T07:17:10;3.20;;;1.67;;
73940;SDS011;62294;48.554;10.202;2023-07-13T07:19:38;2.63;;;1.73;;
73940;SDS011;62294;48.554;10.202;2023-07-13T07:22:04;4.28;;;2.15;;
73940;SDS011;62294;48.554;10.202;2023-07-13T07:24:31;5.65;;;1.70;;
73940;SDS011;62294;48.554;10.202;2023-07-13T07:26:58;4.05;;;1.63;;
73940;SDS011;62294;48.554;10.202;2023-07-13T07:29:27;3.30;;;1.40;;
73940;SDS011;62294;48.554;10.202;2023-07-13T07:31:58;4.85;;;1.50;;
73940;SDS011;62294;48.554;10.202;2023-07-13T07:34:32;2.90;;;1.75;;
73940;SDS011;62294;48.554;10.202;2023-07-13T07:36:59;4.32;;;1.50;;
73940;SDS011;62294;48.554;10.202;2023-07-13T07:39:30;2.22;;;1.30;;
73940;SDS011;62294;48.554;10.202;2023-07-13T07:41:56;4.15;;;1.70;;
73940;SDS011;62294;48.554;10.202;2023-07-13T07:44:23;4.00;;;1.50;;
73940;SDS011;62294;48.554;10.202;2023-07-13T07:46:49;3.03;;;1.58;;
73940;SDS011;62294;48.554;10.202;2023-07-13T07:49:16;2.97;;;1.58;;
73940;SDS011;62294;48.554;10.202;2023-07-13T07:51:43;4.95;;;1.95;;
73940;SDS011;62294;48.554;10.202;2023-07-13T07:54:09;2.90;;;1.27;;
73940;SDS011;62294;48.554;10.202;2023-07-13T07:56:40;4.38;;;1.80;;
73940;SDS011;62294;48.554;10.202;2023-07-13T07:59:09;4.55;;;1.75;;
73940;SDS011;62294;48.554;10.202;2023-07-13T08:01:39;5.15;;;1.40;;
73940;SDS011;62294;48.554;10.202;2023-07-13T08:04:08;3.38;;;1.30;;
73940;SDS011;62294;48.554;10.202;2023-07-13T08:06:55;2.30;;;1.27;;
73940;SDS011;62294;48.554;10.202;2023-07-13T08:09:25;1.70;;;1.50;;
73940;SDS011;62294;48.554;10.202;2023-07-13T08:11:51;2.70;;;1.17;;
73940;SDS011;62294;48.554;10.202;2023-07-13T08:14:21;2.17;;;1.40;;
73940;SDS011;62294;48.554;10.202;2023-07-13T08:16:47;1.70;;;1.20;;
73940;SDS011;62294;48.554;10.202;2023-07-13T08:19:14;2.08;;;1.02;;
73940;SDS011;62294;48.554;10.202;2023-07-13T08:21:40;3.85;;;1.30;;
73940;SDS011;62294;48.554;10.202;2023-07-13T08:24:09;3.15;;;1.40;;
73940;SDS011;62294;48.554;10.202;2023-07-13T08:26:36;3.35;;;1.65;;
73940;SDS011;62294;48.554;10.202;2023-07-13T08:29:02;4.93;;;1.30;;
73940;SDS011;62294;48.554;10.202;2023-07-13T08:31:29;2.72;;;1.65;;
73940;SDS011;62294;48.554;10.202;2023-07-13T08:33:56;4.40;;;1.30;;
73940;SDS011;62294;48.554;10.202;2023-07-13T08:36:25;2.00;;;1.05;;
73940;SDS011;62294;48.554;10.202;2023-07-13T08:38:51;2.80;;;1.20;;
73940;SDS011;62294;48.554;10.202;2023-07-13T08:41:18;3.47;;;1.10;;
73940;SDS011;62294;48.554;10.202;2023-07-13T08:43:46;2.92;;;1.23;;
73940;SDS011;62294;48.554;10.202;2023-07-13T08:46:20;2.70;;;1.02;;
73940;SDS011;62294;48.554;10.202;2023-07-13T08:48:56;2.40;;;0.90;;
73940;SDS011;62294;48.554;10.202;2023-07-13T08:51:32;3.83;;;1.08;;
73940;SDS011;62294;48.554;10.202;2023-07-13T08:54:16;2.15;;;1.38;;
73940;SDS011;62294;48.554;10.202;2023-07-13T08:56:46;1.58;;;1.00;;
73940;SDS011;62294;48.554;10.202;2023-07-13T08:59:16;2.83;;;1.10;;
73940;SDS011;62294;48.554;10.202;2023-07-13T09:02:28;2.35;;;0.98;;
73940;SDS011;62294;48.554;10.202;2023-07-13T09:04:50;3.90;;;1.45;;
73940;SDS011;62294;48.554;10.202;2023-07-13T09:15:25;2.00;;;1.17;;
73940;SDS011;62294;48.554;10.202;2023-07-13T09:17:58;2.70;;;1.23;;
73940;SDS011;62294;48.554;10.202;2023-07-13T09:20:34;3.90;;;1.05;;
73940;SDS011;62294;48.554;10.202;2023-07-13T09:23:05;2.58;;;1.10;;
73940;SDS011;62294;48.554;10.202;2023-07-13T09:25:38;1.63;;;0.80;;
73940;SDS011;62294;48.554;10.202;2023-07-13T09:28:18;2.88;;;0.98;;
73940;SDS011;62294;48.554;10.202;2023-07-13T09:33:20;2.22;;;1.10;;
73940;SDS011;62294;48.554;10.202;2023-07-13T09:35:47;2.28;;;0.88;;
73940;SDS011;62294;48.554;10.202;2023-07-13T09:38:18;3.33;;;1.10;;
73940;SDS011;62294;48.554;10.202;2023-07-13T09:43:36;2.15;;;0.90;;
73940;SDS011;62294;48.554;10.202;2023-07-13T09:46:03;2.85;;;0.80;;
73940;SDS011;62294;48.554;10.202;2023-07-13T09:48:34;2.45;;;1.25;;
73940;SDS011;62294;48.554;10.202;2023-07-13T09:51:13;3.83;;;0.93;;
73940;SDS011;62294;48.554;10.202;2023-07-13T09:53:42;1.55;;;0.93;;
73940;SDS011;62294;48.554;10.202;2023-07-13T09:56:22;1.08;;;0.82;;
73940;SDS011;62294;48.554;10.202;2023-07-13T09:58:50;3.90;;;1.23;;
73940;SDS011;62294;48.554;10.202;2023-07-13T10:01:17;3.25;;;1.15;;
73940;SDS011;62294;48.554;10.202;2023-07-13T10:03:58;1.33;;;1.08;;
73940;SDS011;62294;48.554;10.202;2023-07-13T10:06:25;4.32;;;1.20;;
73940;SDS011;62294;48.554;10.202;2023-07-13T10:08:55;2.33;;;1.02;;
73940;SDS011;62294;48.554;10.202;2023-07-13T10:11:25;1.45;;;0.85;;
73940;SDS011;62294;48.554;10.202;2023-07-13T10:13:59;2.22;;;1.15;;
73940;SDS011;62294;48.554;10.202;2023-07-13T10:16:30;2.38;;;1.20;;
73940;SDS011;62294;48.554;10.202;2023-07-13T10:19:02;2.72;;;1.10;;
73940;SDS011;62294;48.554;10.202;2023-07-13T10:21:38;4.47;;;1.48;;
73940;SDS011;62294;48.554;10.202;2023-07-13T10:26:58;1.08;;;0.90;;
73940;SDS011;62294;48.554;10.202;2023-07-13T10:29:35;1.73;;;1.13;;
73940;SDS011;62294;48.554;10.202;2023-07-13T10:32:08;3.22;;;1.20;;
73940;SDS011;62294;48.554;10.202;2023-07-13T10:34:37;1.60;;;0.95;;
73940;SDS011;62294;48.554;10.202;2023-07-13T10:37:05;1.80;;;1.10;;
73940;SDS011;62294;48.554;10.202;2023-07-13T10:39:35;3.92;;;1.38;;
73940;SDS011;62294;48.554;10.202;2023-07-13T10:42:06;5.88;;;1.30;;
73940;SDS011;62294;48.554;10.202;2023-07-13T10:44:41;2.35;;;1.30;;
73940;SDS011;62294;48.554;10.202;2023-07-13T10:47:10;2.55;;;1.35;;
73940;SDS011;62294;48.554;10.202;2023-07-13T10:49:41;1.63;;;1.30;;
73940;SDS011;62294;48.554;10.202;2023-07-13T11:03:17;1.77;;;1.10;;
73940;SDS011;62294;48.554;10.202;2023-07-13T11:05:49;5.13;;;1.40;;
73940;SDS011;62294;48.554;10.202;2023-07-13T11:08:20;3.28;;;1.40;;
73940;SDS011;62294;48.554;10.202;2023-07-13T11:10:58;3.40;;;1.30;;
73940;SDS011;62294;48.554;10.202;2023-07-13T11:21:32;1.13;;;1.02;;
73940;SDS011;62294;48.554;10.202;2023-07-13T11:31:52;2.90;;;1.42;;
73940;SDS011;62294;48.554;10.202;2023-07-13T11:34:22;2.70;;;1.13;;
73940;SDS011;62294;48.554;10.202;2023-07-13T11:37:10;1.48;;;1.30;;
73940;SDS011;62294;48.554;10.202;2023-07-13T11:39:42;1.45;;;1.17;;
73940;SDS011;62294;48.554;10.202;2023-07-13T11:42:13;2.45;;;1.20;;
73940;SDS011;62294;48.554;10.202;2023-07-13T11:44:45;3.47;;;1.15;;
73940;SDS011;62294;48.554;10.202;2023-07-13T11:47:33;2.33;;;1.17;;
73940;SDS011;62294;48.554;10.202;2023-07-13T11:50:00;2.90;;;1.35;;
73940;SDS011;62294;48.554;10.202;2023-07-13T11:52:34;2.72;;;1.17;;
73940;SDS011;62294;48.554;10.202;2023-07-13T11:55:04;1.92;;;1.13;;
73940;SDS011;62294;48.554;10.202;2023-07-13T11:57:45;8.18;;;1.60;;
73940;SDS011;62294;48.554;10.202;2023-07-13T12:00:20;1.83;;;1.20;;
73940;SDS011;62294;48.554;10.202;2023-07-13T12:02:50;6.05;;;1.65;;
73940;SDS011;62294;48.554;10.202;2023-07-13T12:05:19;4.57;;;1.30;;
73940;SDS011;62294;48.554;10.202;2023-07-13T12:07:50;5.63;;;1.30;;
73940;SDS011;62294;48.554;10.202;2023-07-13T12:10:25;3.40;;;1.05;;
73940;SDS011;62294;48.554;10.202;2023-07-13T12:12:56;3.78;;;1.23;;
73940;SDS011;62294;48.554;10.202;2023-07-13T12:15:27;6.78;;;1.65;;
73940;SDS011;62294;48.554;10.202;2023-07-13T12:17:56;2.08;;;1.25;;
73940;SDS011;62294;48.554;10.202;2023-07-13T12:20:24;2.22;;;1.23;;
73940;SDS011;62294;48.554;10.202;2023-07-13T12:22:53;3.72;;;1.70;;
73940;SDS011;62294;48.554;10.202;2023-07-13T12:25:20;2.60;;;1.23;;
73940;SDS011;62294;48.554;10.202;2023-07-13T12:27:49;4.18;;;1.55;;
73940;SDS011;62294;48.554;10.202;2023-07-13T12:33:24;2.80;;;1.38;;
73940;SDS011;62294;48.554;10.202;2023-07-13T12:35:46;2.17;;;1.30;;
73940;SDS011;62294;48.554;10.202;2023-07-13T12:38:16;1.98;;;1.15;;
73940;SDS011;62294;48.554;10.202;2023-07-13T12:40:43;2.08;;;1.25;;
73940;SDS011;62294;48.554;10.202;2023-07-13T12:43:12;2.95;;;1.38;;
73940;SDS011;62294;48.554;10.202;2023-07-13T12:45:56;2.60;;;1.23;;
73940;SDS011;62294;48.554;10.202;2023-07-13T12:48:37;1.52;;;1.15;;
73940;SDS011;62294;48.554;10.202;2023-07-13T12:51:16;2.63;;;1.13;;
73940;SDS011;62294;48.554;10.202;2023-07-13T12:53:48;2.22;;;1.40;;
73940;SDS011;62294;48.554;10.202;2023-07-13T12:56:26;2.75;;;1.33;;
73940;SDS011;62294;48.554;10.202;2023-07-13T12:58:58;1.50;;;1.20;;
73940;SDS011;62294;48.554;10.202;2023-07-13T13:01:28;2.22;;;1.20;;
73940;SDS011;62294;48.554;10.202;2023-07-13T13:04:00;4.32;;;1.73;;
73940;SDS011;62294;48.554;10.202;2023-07-13T13:06:30;4.57;;;1.70;;
73940;SDS011;62294;48.554;10.202;2023-07-13T13:08:57;4.45;;;1.50;;
73940;SDS011;62294;48.554;10.202;2023-07-13T13:11:26;5.22;;;1.50;;
73940;SDS011;62294;48.554;10.202;2023-07-13T13:13:58;2.37;;;1.43;;
73940;SDS011;62294;48.554;10.202;2023-07-13T13:18:55;3.67;;;2.03;;
73940;SDS011;62294;48.554;10.202;2023-07-13T13:21:26;2.25;;;1.35;;
73940;SDS011;62294;48.554;10.202;2023-07-13T13:23:53;4.63;;;1.50;;
73940;SDS011;62294;48.554;10.202;2023-07-13T13:26:21;6.47;;;1.70;;
73940;SDS011;62294;48.554;10.202;2023-07-13T13:28:49;4.70;;;1.70;;
73940;SDS011;62294;48.554;10.202;2023-07-13T13:31:15;3.10;;;1.30;;
73940;SDS011;62294;48.554;10.202;2023-07-13T13:33:43;3.20;;;1.42;;
73940;SDS011;62294;48.554;10.202;2023-07-13T13:36:13;1.35;;;1.20;;
73940;SDS011;62294;48.554;10.202;2023-07-13T13:38:49;2.63;;;1.52;;
73940;SDS011;62294;48.554;10.202;2023-07-13T13:41:17;4.13;;;1.40;;
73940;SDS011;62294;48.554;10.202;2023-07-13T13:43:43;2.70;;;1.23;;
73940;SDS011;62294;48.554;10.202;2023-07-13T13:46:22;3.13;;;1.75;;
73940;SDS011;62294;48.554;10.202;2023-07-13T13:48:51;4.43;;;1.30;;
73940;SDS011;62294;48.554;10.202;2023-07-13T13:51:18;1.75;;;1.52;;
73940;SDS011;62294;48.554;10.202;2023-07-13T13:53:47;2.65;;;1.58;;
73940;SDS011;62294;48.554;10.202;2023-07-13T13:56:14;4.45;;;1.50;;
73940;SDS011;62294;48.554;10.202;2023-07-13T13:58:43;4.55;;;1.55;;
73940;SDS011;62294;48.554;10.202;2023-07-13T14:01:14;2.25;;;1.17;;
73940;SDS011;62294;48.554;10.202;2023-07-13T14:03:44;2.63;;;1.27;;
73940;SDS011;62294;48.554;10.202;2023-07-13T14:06:12;2.40;;;1.30;;
73940;SDS011;62294;48.554;10.202;2023-07-13T14:08:40;2.42;;;1.30;;
73940;SDS011;62294;48.554;10.202;2023-07-13T14:11:09;2.25;;;1.15;;
73940;SDS011;62294;48.554;10.202;2023-07-13T14:13:39;4.75;;;2.90;;
73940;SDS011;62294;48.554;10.202;2023-07-13T14:16:09;2.45;;;1.42;;
73940;SDS011;62294;48.554;10.202;2023-07-13T14:18:39;2.33;;;1.25;;
73940;SDS011;62294;48.554;10.202;2023-07-13T14:21:19;3.80;;;1.55;;
73940;SDS011;62294;48.554;10.202;2023-07-13T14:23:48;4.22;;;1.70;;
73940;SDS011;62294;48.554;10.202;2023-07-13T14:26:16;3.65;;;1.67;;
73940;SDS011;62294;48.554;10.202;2023-07-13T14:28:45;4.18;;;1.60;;
73940;SDS011;62294;48.554;10.202;2023-07-13T14:31:15;2.35;;;1.58;;
73940;SDS011;62294;48.554;10.202;2023-07-13T14:33:43;4.20;;;1.50;;
73940;SDS011;62294;48.554;10.202;2023-07-13T14:36:30;3.03;;;1.70;;
73940;SDS011;62294;48.554;10.202;2023-07-13T14:39:00;2.00;;;1.42;;
73940;SDS011;62294;48.554;10.202;2023-07-13T14:41:32;4.63;;;1.50;;
73940;SDS011;62294;48.554;10.202;2023-07-13T14:43:59;2.45;;;1.30;;
73940;SDS011;62294;48.554;10.202;2023-07-13T14:46:31;1.50;;;1.27;;
73940;SDS011;62294;48.554;10.202;2023-07-13T14:49:02;2.78;;;1.05;;
73940;SDS011;62294;48.554;10.202;2023-07-13T14:51:29;2.70;;;1.30;;
73940;SDS011;62294;48.554;10.202;2023-07-13T14:53:56;3.42;;;1.20;;
73940;SDS011;62294;48.554;10.202;2023-07-13T14:56:24;1.73;;;1.10;;
73940;SDS011;62294;48.554;10.202;2023-07-13T14:58:51;1.90;;;1.00;;
73940;SDS011;62294;48.554;10.202;2023-07-13T15:01:19;3.75;;;1.27;;
73940;SDS011;62294;48.554;10.202;2023-07-13T15:03:47;2.42;;;1.20;;
73940;SDS011;62294;48.554;10.202;2023-07-13T15:06:16;2.17;;;1.30;;
73940;SDS011;62294;48.554;10.202;2023-07-13T15:08:43;1.98;;;1.05;;
73940;SDS011;62294;48.554;10.202;2023-07-13T15:11:10;3.47;;;1.20;;
73940;SDS011;62294;48.554;10.202;2023-07-13T15:13:40;2.33;;;1.30;;
73940;SDS011;62294;48.554;10.202;2023-07-13T15:16:14;2.00;;;1.63;;
73940;SDS011;62294;48.554;10.202;2023-07-13T15:18:44;3.00;;;1.40;;
73940;SDS011;62294;48.554;10.202;2023-07-13T15:21:14;3.60;;;1.05;;
73940;SDS011;62294;48.554;10.202;2023-07-13T15:23:47;2.83;;;1.50;;
73940;SDS011;62294;48.554;10.202;2023-07-13T15:26:14;4.82;;;1.52;;
73940;SDS011;62294;48.554;10.202;2023-07-13T15:28:48;1.10;;;1.00;;
73940;SDS011;62294;48.554;10.202;2023-07-13T15:31:19;1.52;;;1.30;;
73940;SDS011;62294;48.554;10.202;2023-07-13T15:33:54;5.68;;;1.30;;